createdAt,value
2017-04-14T00:00:27.165Z,0
2017-04-14T00:01:07.666Z,0
2017-04-14T00:01:48.202Z,0
2017-04-14T00:02:28.858Z,0
2017-04-14T00:03:09.378Z,0
2017-04-14T00:03:49.967Z,0
2017-04-14T00:04:30.610Z,0
2017-04-14T00:05:11.120Z,0
2017-04-14T00:05:51.778Z,0
2017-04-14T00:06:36.966Z,0
2017-04-14T00:07:17.602Z,0
2017-04-14T00:07:58.235Z,0
2017-04-14T00:08:38.904Z,0
2017-04-14T00:09:19.541Z,0
2017-04-14T00:10:00.101Z,0
2017-04-14T00:10:40.655Z,0
2017-04-14T00:11:21.212Z,0
2017-04-14T00:12:01.757Z,0
2017-04-14T00:12:42.303Z,0
2017-04-14T00:13:22.851Z,0
2017-04-14T00:14:03.409Z,0
2017-04-14T00:14:44.031Z,0
2017-04-14T00:15:24.503Z,0
2017-04-14T00:16:05.058Z,0
2017-04-14T00:16:45.604Z,0
2017-04-14T00:17:26.164Z,0
2017-04-14T00:18:07.735Z,0
2017-04-14T00:18:48.293Z,0
2017-04-14T00:19:28.960Z,0
2017-04-14T00:20:11.079Z,0
2017-04-14T00:20:51.673Z,0
2017-04-14T00:21:32.217Z,0
2017-04-14T00:22:13.910Z,0
2017-04-14T00:22:54.608Z,0
2017-04-14T00:23:35.208Z,0
2017-04-14T00:24:15.788Z,0
2017-04-14T00:24:56.469Z,0
2017-04-14T00:25:37.061Z,0
2017-04-14T00:26:17.720Z,0
2017-04-14T00:26:59.301Z,0
2017-04-14T00:27:39.947Z,0
2017-04-14T00:28:21.520Z,0
2017-04-14T00:29:02.172Z,0
2017-04-14T00:29:43.743Z,0
2017-04-14T00:30:25.318Z,0
2017-04-14T00:31:05.976Z,0
2017-04-14T00:31:46.519Z,0
2017-04-14T00:32:27.095Z,0
2017-04-14T00:33:07.631Z,0
2017-04-14T00:33:48.277Z,0
2017-04-14T00:34:29.955Z,0
2017-04-14T00:35:11.605Z,0
2017-04-14T00:35:52.282Z,0
2017-04-14T00:36:32.876Z,0
2017-04-14T00:37:13.569Z,0
2017-04-14T00:37:54.165Z,0
2017-04-14T00:38:34.818Z,0
2017-04-14T00:39:15.382Z,0
2017-04-14T00:39:56.009Z,0
2017-04-14T00:40:36.657Z,0
2017-04-14T00:41:17.199Z,0
2017-04-14T00:41:57.851Z,0
2017-04-14T00:42:38.389Z,0
2017-04-14T00:43:18.886Z,0
2017-04-14T00:43:59.472Z,0
2017-04-14T00:44:40.039Z,0
2017-04-14T00:45:20.540Z,0
2017-04-14T00:46:01.205Z,0
2017-04-14T00:46:41.808Z,0
2017-04-14T00:47:22.329Z,0
2017-04-14T00:48:02.907Z,0
2017-04-14T00:48:43.457Z,0
2017-04-14T00:49:24.066Z,0
2017-04-14T00:50:04.731Z,0
2017-04-14T00:50:45.286Z,0
2017-04-14T00:51:25.789Z,0
2017-04-14T00:52:06.315Z,0
2017-04-14T00:52:46.898Z,0
2017-04-14T00:53:28.522Z,0
2017-04-14T00:54:09.092Z,0
2017-04-14T00:54:49.630Z,0
2017-04-14T00:55:30.229Z,0
2017-04-14T00:56:10.823Z,0
2017-04-14T00:56:51.401Z,0
2017-04-14T00:57:31.944Z,0
2017-04-14T00:58:12.501Z,0
2017-04-14T00:58:53.082Z,0
2017-04-14T00:59:33.707Z,0
2017-04-14T01:00:14.250Z,0
2017-04-14T01:00:54.841Z,0
2017-04-14T01:01:36.533Z,0
2017-04-14T01:02:17.099Z,0
2017-04-14T01:02:58.737Z,0
2017-04-14T01:03:39.297Z,0
2017-04-14T01:04:26.370Z,0
2017-04-14T01:05:06.890Z,0
2017-04-14T01:05:47.474Z,0
2017-04-14T01:06:27.992Z,0
2017-04-14T01:07:08.590Z,0
2017-04-14T01:07:49.184Z,0
2017-04-14T01:08:31.834Z,0
2017-04-14T01:09:12.357Z,0
2017-04-14T01:09:52.952Z,0
2017-04-14T01:10:33.566Z,0
2017-04-14T01:11:14.133Z,0
2017-04-14T01:11:54.688Z,0
2017-04-14T01:12:35.247Z,0
2017-04-14T01:13:15.837Z,0
2017-04-14T01:13:56.423Z,0
2017-04-14T01:14:36.949Z,0
2017-04-14T01:15:17.558Z,0
2017-04-14T01:15:58.139Z,0
2017-04-14T01:16:38.742Z,0
2017-04-14T01:17:19.283Z,0
2017-04-14T01:17:59.858Z,0
2017-04-14T01:18:40.488Z,0
2017-04-14T01:19:21.044Z,0
2017-04-14T01:20:01.590Z,0
2017-04-14T01:20:42.140Z,0
2017-04-14T01:21:22.646Z,0
2017-04-14T01:22:03.260Z,0
2017-04-14T03:06:03.846Z,0
2017-04-14T03:06:44.357Z,0
2017-04-14T03:07:24.932Z,0
2017-04-14T03:08:05.465Z,0
2017-04-14T03:08:46.044Z,0
2017-04-14T03:09:26.542Z,0
2017-04-14T03:10:07.149Z,0
2017-04-14T03:10:47.694Z,0
2017-04-14T03:11:30.293Z,0
2017-04-14T03:12:10.839Z,0
2017-04-14T03:12:51.488Z,0
2017-04-14T03:13:32.041Z,0
2017-04-14T03:14:12.560Z,0
2017-04-14T03:14:53.246Z,0
2017-04-14T03:15:33.763Z,0
2017-04-14T03:16:14.286Z,0
2017-04-14T03:16:55.419Z,0
2017-04-14T03:17:36.065Z,0
2017-04-14T03:18:17.638Z,0
2017-04-14T03:18:58.163Z,0
2017-04-14T03:19:43.449Z,0
2017-04-14T03:20:24.016Z,0
2017-04-14T03:21:04.546Z,0
2017-04-14T03:21:45.094Z,0
2017-04-14T03:22:25.646Z,0
2017-04-14T03:23:06.169Z,0
2017-04-14T03:23:46.750Z,0
2017-04-14T03:24:27.296Z,0
2017-04-14T03:25:07.848Z,0
2017-04-14T03:25:48.372Z,0
2017-04-14T03:26:29.988Z,0
2017-04-14T03:27:10.599Z,0
2017-04-14T03:27:51.180Z,0
2017-04-14T03:28:31.691Z,0
2017-04-14T03:29:12.216Z,0
2017-04-14T03:29:52.779Z,0
2017-04-14T03:30:33.385Z,0
2017-04-14T03:31:13.931Z,0
2017-04-14T03:31:55.498Z,0
2017-04-14T03:32:36.021Z,0
2017-04-14T03:33:16.612Z,0
2017-04-14T03:33:57.177Z,0
2017-04-14T03:34:37.809Z,0
2017-04-14T03:35:18.373Z,0
2017-04-14T03:35:59.004Z,0
2017-04-14T03:36:39.509Z,0
2017-04-14T03:37:21.105Z,0
2017-04-14T03:38:01.642Z,0
2017-04-14T03:38:42.205Z,0
2017-04-14T03:39:22.797Z,0
2017-04-14T03:40:03.332Z,0
2017-04-14T03:40:44.880Z,0
2017-04-14T03:41:25.399Z,0
2017-04-14T03:42:06.046Z,0
2017-04-14T03:42:46.572Z,0
2017-04-14T03:43:27.168Z,0
2017-04-14T03:44:08.801Z,0
2017-04-14T03:44:49.318Z,0
2017-04-14T03:45:29.933Z,0
2017-04-14T03:46:11.526Z,0
2017-04-14T03:46:53.153Z,0
2017-04-14T03:47:33.674Z,0
2017-04-14T03:48:14.257Z,0
2017-04-14T03:48:54.880Z,0
2017-04-14T03:49:35.454Z,0
2017-04-14T03:50:15.970Z,0
2017-04-14T03:50:56.564Z,0
2017-04-14T03:51:37.162Z,0
2017-04-14T03:52:18.705Z,0
2017-04-14T03:52:59.230Z,0
2017-04-14T03:53:40.816Z,0
2017-04-14T03:54:21.401Z,0
2017-04-14T03:55:02.936Z,0
2017-04-14T03:55:43.479Z,0
2017-04-14T03:56:25.065Z,0
2017-04-14T03:57:05.655Z,0
2017-04-14T03:57:46.262Z,0
2017-04-14T03:58:26.769Z,0
2017-04-14T03:59:07.364Z,0
2017-04-14T03:59:47.976Z,0
2017-04-14T04:00:28.571Z,0
2017-04-14T04:01:09.088Z,0
2017-04-14T04:01:49.675Z,0
2017-04-14T04:02:30.263Z,0
2017-04-14T04:03:10.861Z,0
2017-04-14T04:03:51.408Z,0
2017-04-14T04:04:32.005Z,0
2017-04-14T04:05:12.578Z,0
2017-04-14T04:05:53.179Z,0
2017-04-14T04:06:33.695Z,0
2017-04-14T04:07:14.282Z,0
2017-04-14T04:07:55.906Z,0
2017-04-14T04:08:36.500Z,0
2017-04-14T04:09:16.994Z,0
2017-04-14T04:09:57.610Z,0
2017-04-14T04:10:38.230Z,0
2017-04-14T04:11:18.813Z,0
2017-04-14T04:11:59.466Z,0
2017-04-14T04:12:40.002Z,0
2017-04-14T04:13:22.602Z,0
2017-04-14T04:14:03.165Z,0
2017-04-14T04:14:43.707Z,0
2017-04-14T04:15:24.257Z,0
2017-04-14T04:16:05.841Z,0
2017-04-14T04:16:46.351Z,0
2017-04-14T04:17:27.965Z,0
2017-04-14T04:18:08.572Z,0
2017-04-14T04:18:49.163Z,0
2017-04-14T04:19:29.689Z,0
2017-04-14T04:20:10.275Z,0
2017-04-14T04:20:50.881Z,0
2017-04-14T04:21:36.176Z,0
2017-04-14T04:22:16.735Z,0
2017-04-14T04:22:57.387Z,0
2017-04-14T04:23:37.926Z,0
2017-04-14T04:24:18.487Z,0
2017-04-14T04:25:00.061Z,0
2017-04-14T04:25:40.614Z,0
2017-04-14T04:26:21.164Z,0
2017-04-14T04:27:06.649Z,0
2017-04-14T04:27:48.216Z,0
2017-04-14T04:28:30.808Z,4
2017-04-14T04:29:11.344Z,4
2017-04-14T04:29:51.905Z,4
2017-04-14T04:30:33.480Z,4
2017-04-14T04:31:14.028Z,0
2017-04-14T04:31:54.548Z,0
2017-04-14T04:32:35.129Z,0
2017-04-14T04:33:15.728Z,4
2017-04-14T04:33:56.332Z,4
2017-04-14T04:34:36.841Z,4
2017-04-14T04:35:17.434Z,4
2017-04-14T04:35:58.032Z,4
2017-04-14T04:36:40.579Z,4
2017-04-14T04:37:21.114Z,8
2017-04-14T04:38:02.718Z,4
2017-04-14T04:38:43.322Z,4
2017-04-14T04:39:23.914Z,4
2017-04-14T04:40:04.433Z,4
2017-04-14T04:40:45.032Z,8
2017-04-14T04:41:25.609Z,8
2017-04-14T04:42:06.218Z,4
2017-04-14T04:42:46.745Z,8
2017-04-14T04:43:28.296Z,8
2017-04-14T04:44:08.898Z,4
2017-04-14T04:44:49.414Z,8
2017-04-14T04:45:29.945Z,8
2017-04-14T04:46:11.570Z,12
2017-04-14T04:46:52.097Z,8
2017-04-14T04:47:34.672Z,8
2017-04-14T04:48:15.272Z,12
2017-04-14T04:48:55.821Z,8
2017-04-14T04:49:36.373Z,12
2017-04-14T04:50:16.968Z,12
2017-04-14T04:50:57.577Z,12
2017-04-14T04:51:38.099Z,12
2017-04-14T04:52:18.725Z,16
2017-04-14T04:52:59.344Z,16
2017-04-14T04:53:40.915Z,16
2017-04-14T04:54:21.461Z,16
2017-04-14T04:55:02.004Z,16
2017-04-14T04:55:42.556Z,20
2017-04-14T04:56:23.119Z,16
2017-04-14T04:57:05.703Z,16
2017-04-14T04:57:46.306Z,20
2017-04-14T04:58:26.906Z,16
2017-04-14T04:59:07.410Z,16
2017-04-14T04:59:48.019Z,20
2017-04-14T05:00:30.658Z,20
2017-04-14T05:01:11.260Z,20
2017-04-14T05:01:51.780Z,24
2017-04-14T05:02:32.361Z,20
2017-04-14T05:03:12.961Z,24
2017-04-14T05:03:54.592Z,20
2017-04-14T05:04:35.110Z,24
2017-04-14T05:05:15.700Z,24
2017-04-14T05:05:57.326Z,24
2017-04-14T05:06:37.918Z,28
2017-04-14T05:07:19.494Z,24
2017-04-14T05:08:04.649Z,28
2017-04-14T05:08:45.203Z,28
2017-04-14T05:09:25.751Z,28
2017-04-14T05:10:06.304Z,28
2017-04-14T05:10:46.973Z,28
2017-04-14T05:11:27.505Z,28
2017-04-14T05:12:09.103Z,28
2017-04-14T05:12:49.631Z,28
2017-04-14T05:13:31.207Z,28
2017-04-14T05:14:11.756Z,28
2017-04-14T05:14:52.314Z,32
2017-04-14T05:15:32.866Z,32
2017-04-14T05:16:13.408Z,32
2017-04-14T05:16:53.968Z,32
2017-04-14T05:17:35.532Z,32
2017-04-14T05:18:16.085Z,32
2017-04-14T05:18:56.640Z,32
2017-04-14T05:19:37.186Z,36
2017-04-14T05:20:18.766Z,36
2017-04-14T05:21:00.334Z,40
2017-04-14T05:21:40.884Z,40
2017-04-14T05:22:21.435Z,40
2017-04-14T05:23:02.485Z,40
2017-04-14T05:23:44.584Z,40
2017-04-14T05:24:25.272Z,40
2017-04-14T05:25:05.906Z,40
2017-04-14T05:25:47.566Z,40
2017-04-14T05:26:29.253Z,44
2017-04-14T05:27:09.917Z,44
2017-04-14T05:27:51.478Z,48
2017-04-14T05:28:32.131Z,48
2017-04-14T05:29:12.784Z,48
2017-04-14T05:29:53.427Z,48
2017-04-14T05:30:34.088Z,48
2017-04-14T05:31:14.749Z,52
2017-04-14T05:31:55.258Z,52
2017-04-14T05:32:35.886Z,48
2017-04-14T05:33:16.598Z,48
2017-04-14T05:33:57.122Z,52
2017-04-14T05:34:37.752Z,52
2017-04-14T05:35:18.455Z,56
2017-04-14T05:35:59.009Z,56
2017-04-14T05:36:44.422Z,56
2017-04-14T05:37:27.021Z,60
2017-04-14T05:38:08.691Z,60
2017-04-14T05:38:49.341Z,64
2017-04-14T05:39:30.026Z,64
2017-04-14T05:40:10.663Z,60
2017-04-14T05:40:51.294Z,64
2017-04-14T05:41:31.999Z,64
2017-04-14T05:42:13.584Z,64
2017-04-14T05:42:54.109Z,64
2017-04-14T05:43:34.790Z,64
2017-04-14T05:44:15.511Z,64
2017-04-14T05:44:56.097Z,64
2017-04-14T05:45:36.631Z,68
2017-04-14T05:46:17.337Z,64
2017-04-14T05:46:58.038Z,64
2017-04-14T05:47:38.691Z,64
2017-04-14T05:48:19.266Z,64
2017-04-14T05:48:59.906Z,68
2017-04-14T05:49:40.550Z,68
2017-04-14T05:50:21.199Z,68
2017-04-14T05:51:02.937Z,68
2017-04-14T05:51:43.636Z,68
2017-04-14T05:52:24.342Z,68
2017-04-14T05:53:04.861Z,68
2017-04-14T07:24:04.254Z,96
2017-04-14T07:24:44.773Z,96
2017-04-14T07:25:25.510Z,100
2017-04-14T07:26:06.005Z,104
2017-04-14T07:26:46.521Z,104
2017-04-14T07:27:27.154Z,108
2017-04-14T07:28:07.709Z,108
2017-04-14T07:28:48.215Z,104
2017-04-14T07:29:28.758Z,100
2017-04-14T07:30:09.314Z,96
2017-04-14T07:30:49.826Z,104
2017-04-14T07:31:30.448Z,112
2017-04-14T07:32:11.762Z,112
2017-04-14T07:32:52.264Z,112
2017-04-14T07:33:32.887Z,116
2017-04-14T07:34:14.506Z,116
2017-04-14T07:35:05.861Z,116
2017-04-14T07:35:46.426Z,112
2017-04-14T13:06:29.820Z,288
2017-04-14T13:07:11.465Z,308
2017-04-14T13:08:04.904Z,308
2017-04-14T14:26:36.151Z,72
2017-04-14T14:27:16.666Z,76
2017-04-14T14:27:57.260Z,76
2017-04-14T14:28:37.768Z,76
2017-04-14T14:29:19.082Z,80
2017-04-14T14:30:00.428Z,80
2017-04-14T14:30:40.985Z,76
2017-04-14T14:31:21.535Z,72
2017-04-14T14:32:03.315Z,72
2017-04-14T14:32:43.868Z,72
2017-04-14T14:33:25.679Z,72
2017-04-14T14:34:06.266Z,76
2017-04-14T14:34:46.864Z,76
2017-04-14T14:35:27.383Z,80
2017-04-14T14:36:08.049Z,80
2017-04-14T14:36:48.609Z,76
2017-04-14T14:37:29.134Z,72
2017-04-14T14:38:09.775Z,72
2017-04-14T14:38:52.229Z,72
2017-04-14T14:39:32.746Z,76
2017-04-14T14:40:14.356Z,76
2017-04-14T14:40:54.927Z,80
2017-04-14T14:41:35.554Z,80
2017-04-14T14:42:16.050Z,88
2017-04-14T14:42:56.656Z,92
2017-04-14T14:43:37.227Z,88
2017-04-14T14:44:17.789Z,92
2017-04-14T14:44:58.343Z,96
2017-04-14T14:45:38.938Z,96
2017-04-14T14:46:19.441Z,100
2017-04-14T14:47:01.034Z,108
2017-04-14T14:47:42.401Z,104
2017-04-14T14:48:23.406Z,100
2017-04-14T14:49:05.434Z,100
2017-04-14T14:49:45.995Z,100
2017-04-14T14:50:26.647Z,108
2017-04-14T14:51:07.198Z,112
2017-04-14T14:51:47.752Z,108
2017-04-14T14:52:28.405Z,100
2017-04-14T14:53:08.955Z,100
2017-04-14T14:53:49.538Z,104
2017-04-14T14:54:30.081Z,100
2017-04-14T14:55:11.659Z,96
2017-04-14T14:55:52.296Z,96
2017-04-14T14:56:32.867Z,88
2017-04-14T14:57:13.470Z,92
2017-04-14T14:57:54.118Z,92
2017-04-14T14:58:34.686Z,100
2017-04-14T14:59:15.276Z,100
2017-04-14T14:59:55.818Z,104
2017-04-14T15:00:36.418Z,104
2017-04-14T15:01:16.995Z,100
2017-04-14T15:01:58.603Z,100
2017-04-14T15:02:39.115Z,104
2017-04-14T15:03:19.734Z,116
2017-04-14T15:04:00.315Z,124
2017-04-14T15:04:40.909Z,128
2017-04-14T15:05:22.502Z,124
2017-04-14T15:06:03.165Z,116
2017-04-14T15:06:43.679Z,112
2017-04-14T15:07:25.256Z,112
2017-04-14T15:08:05.854Z,104
2017-04-14T15:08:47.383Z,100
2017-04-14T15:09:27.930Z,96
2017-04-14T15:10:08.488Z,88
2017-04-14T15:10:49.134Z,80
2017-04-14T15:11:29.701Z,76
2017-04-14T15:12:10.239Z,84
2017-04-14T15:12:50.890Z,84
2017-04-14T15:13:31.545Z,84
2017-04-14T15:14:12.092Z,80
2017-04-14T15:14:52.745Z,76
2017-04-14T15:15:33.296Z,76
2017-04-14T15:16:13.948Z,76
2017-04-14T15:16:54.499Z,72
2017-04-14T15:17:35.050Z,76
2017-04-14T15:18:15.627Z,72
2017-04-14T15:18:56.259Z,76
2017-04-14T15:19:36.805Z,72
2017-04-14T15:20:17.350Z,72
2017-04-14T15:20:57.925Z,72
2017-04-14T15:21:38.547Z,68
2017-04-14T15:22:19.108Z,60
2017-04-14T15:23:01.706Z,60
2017-04-14T15:23:42.253Z,52
2017-04-14T15:24:22.781Z,48
2017-04-14T15:25:03.360Z,44
2017-04-14T15:25:43.919Z,40
2017-04-14T15:26:24.476Z,36
2017-04-14T15:27:05.025Z,28
2017-04-14T15:27:45.627Z,28
2017-04-14T15:28:27.189Z,24
2017-04-14T15:29:07.788Z,24
2017-04-14T15:29:48.338Z,24
2017-04-14T15:30:28.900Z,24
2017-04-14T15:31:09.541Z,24
2017-04-14T15:31:50.039Z,24
2017-04-14T15:32:30.564Z,32
2017-04-14T15:33:11.076Z,36
2017-04-14T15:33:51.691Z,40
2017-04-14T15:34:32.306Z,44
2017-04-14T15:35:12.848Z,44
2017-04-14T15:35:53.375Z,40
2017-04-14T15:36:33.952Z,36
2017-04-14T15:37:14.503Z,36
2017-04-14T15:37:55.025Z,36
2017-04-14T15:38:35.595Z,36
2017-04-14T15:39:16.095Z,36
2017-04-14T15:39:56.697Z,32
2017-04-14T15:40:37.213Z,28
2017-04-14T15:41:17.817Z,28
2017-04-14T15:41:58.325Z,32
2017-04-14T15:42:38.822Z,32
2017-04-14T15:43:19.349Z,32
2017-04-14T15:43:59.875Z,32
2017-04-14T15:44:40.517Z,32
2017-04-14T15:45:21.037Z,32
2017-04-14T15:46:01.565Z,32
2017-04-14T15:46:43.146Z,28
2017-04-14T15:47:23.671Z,24
2017-04-14T15:48:04.194Z,24
2017-04-14T15:48:44.719Z,24
2017-04-14T15:49:25.226Z,24
2017-04-14T15:50:05.909Z,24
2017-04-14T15:50:46.404Z,20
2017-04-14T15:51:27.023Z,24
2017-04-14T15:52:07.638Z,24
2017-04-14T15:52:48.285Z,24
2017-04-14T15:53:28.835Z,28
2017-04-14T15:54:09.379Z,28
2017-04-14T15:54:49.987Z,28
2017-04-14T15:55:30.537Z,28
2017-04-14T15:56:11.090Z,28
2017-04-14T15:56:51.643Z,32
2017-04-14T15:57:32.186Z,28
2017-04-14T15:58:12.769Z,32
2017-04-14T15:58:54.367Z,28
2017-04-14T15:59:34.893Z,28
2017-04-14T16:00:15.473Z,24
2017-04-14T16:00:56.084Z,24
2017-04-14T16:01:36.684Z,24
2017-04-14T16:02:17.200Z,24
2017-04-14T16:02:57.799Z,24
2017-04-14T16:03:38.404Z,24
2017-04-14T16:04:18.978Z,28
2017-04-14T16:04:59.503Z,24
2017-04-14T16:05:40.078Z,24
2017-04-14T16:06:20.661Z,24
2017-04-14T16:07:01.286Z,20
2017-04-14T16:07:41.791Z,20
2017-04-14T16:08:22.418Z,20
2017-04-14T16:09:03.112Z,20
2017-04-14T16:09:43.562Z,20
2017-04-14T16:10:25.123Z,20
2017-04-14T16:11:05.720Z,20
2017-04-14T16:11:46.236Z,20
2017-04-14T16:12:26.762Z,20
2017-04-14T16:13:07.371Z,20
2017-04-14T16:13:47.918Z,16
2017-04-14T16:14:28.476Z,16
2017-04-14T16:15:09.012Z,20
2017-04-14T16:15:49.567Z,16
2017-04-14T16:16:30.119Z,16
2017-04-14T16:17:10.673Z,16
2017-04-14T16:17:51.219Z,16
2017-04-14T16:18:31.770Z,20
2017-04-14T16:19:12.336Z,20
2017-04-14T16:19:52.877Z,20
2017-04-14T16:20:33.425Z,24
2017-04-14T16:21:13.978Z,20
2017-04-14T16:21:54.567Z,16
2017-04-14T16:22:35.174Z,20
2017-04-14T16:23:15.731Z,16
2017-04-14T16:23:56.271Z,16
2017-04-14T16:24:36.850Z,20
2017-04-14T16:25:17.428Z,20
2017-04-14T16:25:58.052Z,20
2017-04-14T16:26:38.557Z,24
2017-04-14T16:27:20.153Z,20
2017-04-14T16:28:00.755Z,20
2017-04-14T16:28:41.364Z,20
2017-04-14T16:29:21.918Z,20
2017-04-14T16:30:02.460Z,24
2017-04-14T16:30:43.015Z,24
2017-04-14T16:31:23.672Z,24
2017-04-14T16:32:04.214Z,20
2017-04-14T16:32:44.787Z,20
2017-04-14T16:33:25.431Z,16
2017-04-14T16:34:05.975Z,20
2017-04-14T16:34:46.514Z,16
2017-04-14T16:35:27.082Z,12
2017-04-14T16:36:07.646Z,16
2017-04-14T16:36:48.177Z,16
2017-04-14T16:37:28.839Z,12
2017-04-14T16:38:09.386Z,12
2017-04-14T16:38:49.916Z,12
2017-04-14T16:39:30.500Z,8
2017-04-14T16:40:11.086Z,12
2017-04-14T16:40:51.690Z,8
2017-04-14T16:41:32.199Z,8
2017-04-14T16:42:12.815Z,8
2017-04-14T16:42:53.387Z,12
2017-04-14T16:43:33.998Z,12
2017-04-14T16:44:14.502Z,12
2017-04-14T16:44:55.105Z,12
2017-04-14T16:45:35.714Z,12
2017-04-14T16:46:16.306Z,12
2017-04-14T16:46:56.831Z,12
2017-04-14T16:47:37.434Z,12
2017-04-14T16:48:18.017Z,12
2017-04-14T16:48:59.659Z,12
2017-04-14T16:49:40.200Z,12
2017-04-14T16:50:21.161Z,12
2017-04-14T16:51:01.882Z,12
2017-04-14T16:51:42.500Z,12
2017-04-14T16:52:23.047Z,8
2017-04-14T16:53:03.657Z,8
2017-04-14T16:53:44.297Z,8
2017-04-14T16:54:24.823Z,12
2017-04-14T16:55:05.511Z,12
2017-04-14T16:55:46.051Z,12
2017-04-14T16:56:26.794Z,12
2017-04-14T16:57:07.721Z,12
2017-04-14T16:57:48.330Z,12
2017-04-14T16:58:29.019Z,12
2017-04-14T16:59:09.627Z,12
2017-04-14T16:59:50.141Z,12
2017-04-14T17:00:30.659Z,12
2017-04-14T17:01:11.280Z,12
2017-04-14T17:01:51.803Z,8
2017-04-14T17:02:32.414Z,12
2017-04-14T17:03:13.041Z,12
2017-04-14T17:03:53.579Z,12
2017-04-14T17:04:35.164Z,12
2017-04-14T17:05:15.755Z,12
2017-04-14T17:05:57.384Z,12
2017-04-14T17:06:37.939Z,12
2017-04-14T17:07:18.593Z,12
2017-04-14T17:07:59.281Z,12
2017-04-14T17:08:39.896Z,12
2017-04-14T17:09:20.446Z,12
2017-04-14T17:10:00.989Z,12
2017-04-14T17:10:41.540Z,12
2017-04-14T17:11:22.188Z,12
2017-04-14T17:12:02.743Z,8
2017-04-14T17:12:43.291Z,8
2017-04-14T17:13:23.843Z,8
2017-04-14T17:14:04.374Z,8
2017-04-14T17:14:44.960Z,8
2017-04-14T17:15:25.564Z,8
2017-04-14T17:16:06.187Z,8
2017-04-14T17:16:46.655Z,8
2017-04-14T17:17:27.314Z,8
2017-04-14T17:18:07.911Z,8
2017-04-14T17:18:48.428Z,8
2017-04-14T17:19:29.036Z,8
2017-04-14T17:20:09.630Z,8
2017-04-14T17:20:50.210Z,8
2017-04-14T17:21:30.736Z,8
2017-04-14T17:22:11.340Z,8
2017-04-14T17:22:51.932Z,8
2017-04-14T17:23:32.508Z,8
2017-04-14T17:24:13.060Z,8
2017-04-14T17:24:53.620Z,8
2017-04-14T17:25:34.261Z,8
2017-04-14T17:26:14.822Z,8
2017-04-14T17:26:55.373Z,8
2017-04-14T17:27:35.921Z,8
2017-04-14T17:28:16.473Z,8
2017-04-14T17:28:57.127Z,4
2017-04-14T17:29:37.677Z,8
2017-04-14T17:30:18.218Z,8
2017-04-14T17:30:58.883Z,8
2017-04-14T17:31:39.532Z,4
2017-04-14T17:32:20.087Z,4
2017-04-14T17:33:00.648Z,4
2017-04-14T17:33:41.138Z,4
2017-04-14T17:34:22.207Z,4
2017-04-14T17:35:02.802Z,4
2017-04-14T17:35:43.301Z,4
2017-04-14T17:36:23.912Z,4
2017-04-14T17:37:04.453Z,4
2017-04-14T17:37:44.965Z,8
2017-04-14T17:38:25.595Z,8
2017-04-14T17:39:06.206Z,4
2017-04-14T17:39:46.753Z,4
2017-04-14T17:40:27.370Z,4
2017-04-14T17:41:07.969Z,4
2017-04-14T17:41:49.579Z,4
2017-04-14T17:42:30.112Z,8
2017-04-14T17:43:10.775Z,4
2017-04-14T17:43:51.426Z,4
2017-04-14T17:44:31.975Z,8
2017-04-14T17:45:12.706Z,8
2017-04-14T17:45:53.288Z,8
2017-04-14T17:46:33.904Z,4
2017-04-14T17:47:14.513Z,4
2017-04-14T17:47:55.182Z,4
2017-04-14T17:48:35.804Z,4
2017-04-14T17:49:16.460Z,4
2017-04-14T17:49:56.996Z,8
2017-04-14T17:50:37.547Z,8
2017-04-14T17:51:18.105Z,8
2017-04-14T17:51:58.658Z,8
2017-04-14T17:52:40.224Z,8
2017-04-14T17:53:20.877Z,8
2017-04-14T17:54:01.423Z,8
2017-04-14T17:54:41.969Z,4
2017-04-14T17:55:22.577Z,8
2017-04-14T17:56:03.200Z,8
2017-04-14T17:56:43.723Z,4
2017-04-14T17:57:24.300Z,4
2017-04-14T17:58:04.902Z,4
2017-04-14T17:58:45.512Z,4
2017-04-14T17:59:26.156Z,4
2017-04-14T18:00:06.716Z,4
2017-04-14T18:00:47.286Z,4
2017-04-14T18:01:27.887Z,4
2017-04-14T18:02:08.412Z,4
2017-04-14T18:02:48.978Z,4
2017-04-14T18:03:29.604Z,4
2017-04-14T18:04:12.250Z,4
2017-04-14T18:04:52.766Z,4
2017-04-14T18:05:33.385Z,4
2017-04-14T18:06:13.960Z,4
2017-04-14T18:06:54.548Z,4
2017-04-14T18:07:35.079Z,4
2017-04-14T18:08:15.659Z,4
2017-04-14T18:08:57.286Z,4
2017-04-14T18:09:37.889Z,4
2017-04-14T18:10:18.397Z,0
2017-04-14T18:10:58.988Z,0
2017-04-14T18:11:39.591Z,0
2017-04-14T18:12:20.186Z,0
2017-04-14T18:13:00.691Z,0
2017-04-14T18:13:41.240Z,0
2017-04-14T18:14:22.159Z,0
2017-04-14T18:15:04.069Z,0
2017-04-14T18:15:44.691Z,0
2017-04-14T18:16:25.229Z,0
2017-04-14T18:17:05.836Z,4
2017-04-14T18:17:46.438Z,4
2017-04-14T18:18:27.009Z,0
2017-04-14T18:19:07.649Z,0
2017-04-14T18:19:48.239Z,0
2017-04-14T18:20:29.162Z,0
2017-04-14T18:21:09.753Z,0
2017-04-14T18:21:50.315Z,0
2017-04-14T18:22:30.854Z,0
2017-04-14T18:23:11.400Z,0
2017-04-14T18:23:51.950Z,0
2017-04-14T18:24:33.526Z,0
2017-04-14T18:25:14.093Z,0
2017-04-14T18:25:54.629Z,0
2017-04-14T18:26:35.194Z,0
2017-04-14T18:27:15.761Z,0
2017-04-14T18:27:56.406Z,0
2017-04-14T18:28:37.185Z,0
2017-04-14T18:29:17.743Z,0
2017-04-14T18:29:58.285Z,0
2017-04-14T18:30:38.835Z,0
2017-04-14T18:31:19.390Z,0
2017-04-14T18:31:59.937Z,0
2017-04-14T18:32:40.487Z,0
2017-04-14T18:33:21.002Z,0
2017-04-14T18:34:01.543Z,0
2017-04-14T18:34:42.099Z,0
2017-04-14T18:35:22.690Z,0
2017-04-14T18:36:03.203Z,0
2017-04-14T18:36:43.747Z,0
2017-04-14T18:37:24.264Z,0
2017-04-14T18:38:04.843Z,0
2017-04-14T18:38:45.392Z,0
2017-04-14T18:39:25.975Z,0
2017-04-14T18:40:06.605Z,0
2017-04-14T18:40:47.259Z,0
2017-04-14T18:41:27.905Z,0
2017-04-14T18:42:08.451Z,0
2017-04-14T18:42:49.002Z,0
2017-04-14T18:43:29.555Z,0
2017-04-14T18:44:10.080Z,0
2017-04-14T18:44:50.691Z,0
2017-04-14T18:45:31.277Z,0
2017-04-14T18:46:12.886Z,0
2017-04-14T18:46:53.429Z,0
2017-04-14T18:47:34.000Z,0
2017-04-14T18:48:14.584Z,0
2017-04-14T18:48:55.094Z,0
2017-04-14T18:49:35.637Z,0
2017-04-14T18:50:16.181Z,0
2017-04-14T18:50:57.762Z,0
2017-04-14T18:51:39.432Z,0
2017-04-14T18:52:20.007Z,0
2017-04-14T18:53:00.539Z,0
2017-04-14T18:53:41.089Z,0
2017-04-14T18:54:21.631Z,0
2017-04-14T18:55:02.247Z,0
2017-04-14T18:55:42.712Z,0
2017-04-14T18:56:23.323Z,0
2017-04-14T18:57:03.838Z,0
2017-04-14T18:57:44.393Z,0
2017-04-14T18:58:24.904Z,0
2017-04-14T18:59:05.491Z,0
2017-04-14T18:59:46.038Z,0
2017-04-14T19:00:27.621Z,0
2017-04-14T19:01:08.130Z,0
2017-04-14T19:01:48.619Z,0
2017-04-14T19:02:29.277Z,0
2017-04-14T19:03:09.819Z,0
2017-04-14T19:03:50.352Z,0
2017-04-14T19:04:30.897Z,0
2017-04-14T19:05:11.511Z,0
2017-04-14T19:05:52.076Z,0
2017-04-14T19:06:32.688Z,0
2017-04-14T19:07:13.236Z,0
2017-04-14T19:07:55.843Z,0
2017-04-14T19:08:36.435Z,0
2017-04-14T19:09:16.958Z,0
2017-04-14T19:09:57.471Z,0
2017-04-14T19:10:38.046Z,0
2017-04-14T19:11:18.567Z,0
2017-04-14T19:11:59.081Z,0
2017-04-14T19:12:39.610Z,0
2017-04-14T19:13:20.132Z,0
2017-04-14T19:14:00.685Z,0
2017-04-14T19:14:41.335Z,0
2017-04-14T19:15:21.858Z,0
2017-04-14T19:16:02.437Z,0
2017-04-14T19:16:43.034Z,0
2017-04-14T19:17:23.740Z,0
2017-04-14T19:18:04.262Z,0
2017-04-14T19:18:44.877Z,0
2017-04-14T19:19:25.463Z,0
2017-04-14T19:20:06.060Z,0
2017-04-14T19:20:46.568Z,0
2017-04-14T19:21:27.169Z,0
2017-04-14T19:22:07.745Z,0
2017-04-14T19:22:48.354Z,0
2017-04-14T19:23:28.874Z,0
2017-04-14T19:24:09.461Z,0
2017-04-14T19:24:50.050Z,0
2017-04-14T19:25:30.663Z,0
2017-04-14T19:26:11.180Z,0
2017-04-14T19:26:51.767Z,0
2017-04-14T19:27:32.379Z,0
2017-04-14T19:28:12.984Z,0
2017-04-14T19:28:53.529Z,0
2017-04-14T19:29:34.373Z,0
2017-04-14T19:30:15.010Z,0
2017-04-14T19:30:55.673Z,0
2017-04-14T19:31:36.228Z,0
2017-04-14T19:32:16.901Z,0
2017-04-14T19:32:57.540Z,0
2017-04-14T19:33:38.097Z,0
2017-04-14T19:34:18.605Z,0
2017-04-14T19:34:59.217Z,0
2017-04-14T19:35:39.872Z,0
2017-04-14T19:36:20.407Z,0
2017-04-14T19:37:00.933Z,0
2017-04-14T19:37:41.499Z,0
2017-04-14T19:38:22.148Z,0
2017-04-14T19:39:02.693Z,0
2017-04-14T19:39:43.296Z,0
2017-04-14T19:40:23.894Z,0
2017-04-14T19:41:04.443Z,0
2017-04-14T19:41:45.005Z,0
2017-04-14T19:42:25.547Z,0
2017-04-14T19:43:06.105Z,0
2017-04-14T19:43:46.749Z,0
2017-04-14T19:44:27.271Z,0
2017-04-14T19:45:07.987Z,0
2017-04-14T19:45:48.570Z,0
2017-04-14T19:46:29.160Z,0
2017-04-14T19:47:09.674Z,0
2017-04-14T19:47:50.325Z,0
2017-04-14T19:48:31.033Z,0
2017-04-14T19:49:11.675Z,0
2017-04-14T19:49:52.223Z,0
2017-04-14T19:50:33.896Z,0
2017-04-14T19:51:14.449Z,0
2017-04-14T19:51:55.002Z,0
2017-04-14T19:52:35.546Z,0
2017-04-14T19:53:16.120Z,0
2017-04-14T19:53:56.657Z,0
2017-04-14T19:54:37.202Z,0